createdAt,value
2022-12-23T00:00:11.417Z,9.4
2022-12-23T00:01:10.122Z,9.3
2022-12-23T00:02:10.643Z,9.3
2022-12-23T00:03:11.566Z,9.3
2022-12-23T00:04:11.321Z,9.2
2022-12-23T00:05:10.738Z,9.3
2022-12-23T00:06:10.722Z,9.3
2022-12-23T00:07:10.956Z,9.3
2022-12-23T00:08:12.189Z,9.3
2022-12-23T00:09:10.703Z,9.3
2022-12-23T00:10:11.058Z,9.3
2022-12-23T00:11:11.357Z,9.3
2022-12-23T00:12:10.821Z,9.2
2022-12-23T00:13:11.231Z,9.2
2022-12-23T00:14:14.632Z,9.2
2022-12-23T00:15:10.810Z,9.2
2022-12-23T00:16:10.672Z,9.2
2022-12-23T00:17:21.566Z,9.1
2022-12-23T00:18:10.633Z,9.1
2022-12-23T00:19:11.176Z,9.1
2022-12-23T00:20:10.705Z,9.1
2022-12-23T00:21:12.202Z,9.1
2022-12-23T00:22:11.133Z,9.1
2022-12-23T00:23:09.833Z,9.1
2022-12-23T00:24:10.609Z,9.2
2022-12-23T00:25:11.585Z,9.2
2022-12-23T00:26:10.686Z,9.2
2022-12-23T00:27:10.949Z,9.2
2022-12-23T00:28:10.741Z,9.1
2022-12-23T00:29:11.350Z,9.1
2022-12-23T00:30:11.332Z,9.2
2022-12-23T00:31:10.895Z,9.1
2022-12-23T00:32:11.339Z,9.1
2022-12-23T00:33:10.861Z,9.2
2022-12-23T00:34:10.854Z,9.2
2022-12-23T00:35:11.443Z,9.1
2022-12-23T00:36:11.130Z,9.1
2022-12-23T00:37:11.015Z,9.1
2022-12-23T00:38:10.496Z,9.1
2022-12-23T00:39:11.519Z,9.1
2022-12-23T00:40:10.759Z,9.2
2022-12-23T00:41:11.156Z,9.1
2022-12-23T00:42:11.355Z,9.1
2022-12-23T00:43:11.007Z,9.2
2022-12-23T00:44:10.971Z,9.2
2022-12-23T00:45:11.092Z,9.2
2022-12-23T00:46:11.536Z,9.2
2022-12-23T00:47:10.871Z,9.3
2022-12-23T00:48:11.314Z,9.2
2022-12-23T00:49:10.878Z,9.2
2022-12-23T00:50:10.544Z,9.2
2022-12-23T00:51:10.581Z,9.3
2022-12-23T00:52:10.853Z,9.2
2022-12-23T00:53:12.152Z,9.2
2022-12-23T00:54:11.155Z,9.3
2022-12-23T00:55:10.569Z,9.3
2022-12-23T00:56:11.486Z,9.2
2022-12-23T00:57:11.607Z,9.2
2022-12-23T00:58:11.195Z,9.2
2022-12-23T00:59:11.042Z,9.1
2022-12-23T01:00:11.533Z,9.1
2022-12-23T01:01:11.197Z,9.1
2022-12-23T01:02:10.691Z,9.1
2022-12-23T01:03:11.525Z,9.2
2022-12-23T01:04:11.528Z,9.3
2022-12-23T01:05:10.649Z,9.3
2022-12-23T01:06:11.078Z,9.2
2022-12-23T01:07:09.396Z,9.3
2022-12-23T01:08:09.331Z,9.3
2022-12-23T01:09:10.506Z,9.3
2022-12-23T01:10:10.734Z,9.2
2022-12-23T01:11:10.969Z,9.2
2022-12-23T01:12:10.955Z,9.3
2022-12-23T01:13:11.953Z,9.3
2022-12-23T01:14:11.156Z,9.3
2022-12-23T01:15:10.672Z,9.2
2022-12-23T01:16:16.908Z,9.2
2022-12-23T01:17:11.067Z,9.2
2022-12-23T01:18:11.085Z,9.2
2022-12-23T01:19:10.667Z,9.2
2022-12-23T01:20:11.422Z,9.2
2022-12-23T01:21:10.638Z,9.2
2022-12-23T01:22:10.958Z,9.2
2022-12-23T01:23:11.324Z,9.2
2022-12-23T01:24:10.612Z,9.3
2022-12-23T01:25:10.567Z,9.2
2022-12-23T01:26:12.169Z,9.2
2022-12-23T01:27:10.893Z,9.3
2022-12-23T01:28:11.278Z,9.3
2022-12-23T01:29:11.049Z,9.3
2022-12-23T01:30:10.185Z,9.3
2022-12-23T01:31:10.959Z,9.3
2022-12-23T01:32:10.924Z,9.3
2022-12-23T01:33:10.813Z,9.3
2022-12-23T01:34:10.941Z,9.3
2022-12-23T01:35:10.508Z,9.3
2022-12-23T01:36:10.669Z,9.3
2022-12-23T01:37:10.748Z,9.3
2022-12-23T01:38:11.709Z,9.2
2022-12-23T01:39:11.353Z,9.3
2022-12-23T01:40:10.633Z,9.3
2022-12-23T01:41:11.276Z,9.2
2022-12-23T01:42:10.522Z,9.2
2022-12-23T01:43:10.483Z,9.3
2022-12-23T01:44:11.169Z,9.2
2022-12-23T01:45:10.493Z,9.3
2022-12-23T01:46:11.421Z,9.2
2022-12-23T01:47:10.939Z,9.2
2022-12-23T01:48:10.859Z,9.2
2022-12-23T01:49:11.043Z,9.2
2022-12-23T01:50:10.858Z,9.2
2022-12-23T01:51:11.204Z,9.3
2022-12-23T01:52:11.571Z,9.3
2022-12-23T01:53:10.517Z,9.3
2022-12-23T01:54:10.537Z,9.2
2022-12-23T01:55:11.623Z,9.2
2022-12-23T01:56:11.136Z,9.2
2022-12-23T01:57:10.888Z,9.3
2022-12-23T01:58:11.115Z,9.2
2022-12-23T01:59:11.537Z,9.2
2022-12-23T02:00:11.359Z,9.2
2022-12-23T02:01:10.780Z,9.1
2022-12-23T02:02:10.866Z,9.1
2022-12-23T02:03:11.617Z,9.2
2022-12-23T02:04:10.515Z,9.2
2022-12-23T02:05:12.207Z,9.2
2022-12-23T02:06:10.488Z,9.2
2022-12-23T02:07:10.578Z,9.2
2022-12-23T02:08:11.969Z,9.1
2022-12-23T02:09:11.218Z,9.2
2022-12-23T02:10:10.855Z,9.2
2022-12-23T02:11:11.700Z,9.2
2022-12-23T02:12:11.360Z,9.2
2022-12-23T02:13:11.070Z,9.2
2022-12-23T02:14:10.511Z,9.3
2022-12-23T02:15:09.646Z,9.3
2022-12-23T02:16:10.512Z,9.3
2022-12-23T02:17:11.496Z,9.3
2022-12-23T02:18:11.012Z,9.2
2022-12-23T02:19:10.522Z,9.3
2022-12-23T02:20:11.164Z,9.3
2022-12-23T02:21:10.905Z,9.3
2022-12-23T02:22:10.807Z,9.3
2022-12-23T02:23:10.495Z,9.3
2022-12-23T02:24:11.735Z,9.3
2022-12-23T02:25:11.089Z,9.3
2022-12-23T02:26:10.724Z,9.3
2022-12-23T02:27:11.047Z,9.4
2022-12-23T02:28:10.955Z,9.3
2022-12-23T02:29:10.955Z,9.4
2022-12-23T02:30:11.374Z,9.4
2022-12-23T02:31:11.222Z,9.3
2022-12-23T02:32:10.728Z,9.4
2022-12-23T02:33:11.039Z,9.3
2022-12-23T02:34:11.477Z,9.3
2022-12-23T02:35:11.634Z,9.4
2022-12-23T02:36:10.948Z,9.4
2022-12-23T02:37:11.317Z,9.4
2022-12-23T02:38:09.350Z,9.4
2022-12-23T02:39:11.153Z,9.3
2022-12-23T02:40:11.282Z,9.3
2022-12-23T02:41:12.066Z,9.3
2022-12-23T02:42:10.920Z,9.2
2022-12-23T02:43:10.626Z,9.1
2022-12-23T02:44:11.749Z,9.1
2022-12-23T02:45:11.546Z,9.1
2022-12-23T02:46:10.967Z,9.1
2022-12-23T02:47:11.154Z,9
2022-12-23T02:48:11.704Z,9
2022-12-23T02:49:11.582Z,9
2022-12-23T02:50:11.059Z,9
2022-12-23T02:51:11.145Z,9
2022-12-23T02:52:11.033Z,9
2022-12-23T02:53:10.514Z,9
2022-12-23T02:54:11.550Z,9
2022-12-23T02:55:10.676Z,8.9
2022-12-23T02:56:10.748Z,8.9
2022-12-23T02:57:10.506Z,8.9
2022-12-23T02:58:11.106Z,9
2022-12-23T02:59:11.381Z,8.9
2022-12-23T03:00:11.090Z,9
2022-12-23T03:01:11.534Z,9
2022-12-23T03:02:11.012Z,8.9
2022-12-23T03:03:10.601Z,9
2022-12-23T03:04:11.578Z,9
2022-12-23T03:05:10.939Z,9
2022-12-23T03:06:10.475Z,9
2022-12-23T03:07:15.154Z,9
2022-12-23T03:08:11.277Z,9
2022-12-23T03:09:10.612Z,9
2022-12-23T03:10:10.522Z,9
2022-12-23T03:11:10.547Z,9
2022-12-23T03:12:11.125Z,9
2022-12-23T03:13:11.123Z,9.1
2022-12-23T03:14:10.848Z,9.1
2022-12-23T03:15:11.180Z,9.1
2022-12-23T03:16:11.640Z,9.1
2022-12-23T03:17:10.581Z,9.1
2022-12-23T03:18:11.424Z,9.1
2022-12-23T03:19:11.009Z,9.1
2022-12-23T03:20:10.653Z,9.1
2022-12-23T03:21:10.146Z,9.1
2022-12-23T03:22:10.772Z,9
2022-12-23T03:23:11.816Z,9
2022-12-23T03:24:11.009Z,9
2022-12-23T03:25:11.071Z,9
2022-12-23T03:26:10.981Z,9.1
2022-12-23T03:27:10.682Z,9
2022-12-23T03:28:10.929Z,9
2022-12-23T03:29:11.079Z,9
2022-12-23T03:30:10.973Z,9
2022-12-23T03:31:11.219Z,9
2022-12-23T03:32:11.695Z,8.9
2022-12-23T03:33:12.064Z,8.9
2022-12-23T03:34:11.010Z,8.9
2022-12-23T03:35:11.227Z,9
2022-12-23T03:36:11.101Z,9
2022-12-23T03:37:10.800Z,8.9
2022-12-23T03:38:10.744Z,8.9
2022-12-23T03:39:11.300Z,8.9
2022-12-23T03:40:11.387Z,8.9
2022-12-23T03:41:10.899Z,8.9
2022-12-23T03:42:10.666Z,8.9
2022-12-23T03:43:11.245Z,8.9
2022-12-23T03:44:10.491Z,8.9
2022-12-23T03:45:40.297Z,9
2022-12-23T03:46:10.662Z,9
2022-12-23T03:47:11.020Z,9
2022-12-23T03:48:11.353Z,9
2022-12-23T03:49:10.824Z,9
2022-12-23T03:50:10.489Z,9
2022-12-23T03:51:11.235Z,9
2022-12-23T03:52:15.819Z,9
2022-12-23T03:53:10.652Z,9
2022-12-23T03:54:10.723Z,9
2022-12-23T03:55:10.672Z,9
2022-12-23T03:56:11.304Z,8.9
2022-12-23T03:57:11.180Z,8.9
2022-12-23T03:58:10.572Z,8.9
2022-12-23T03:59:10.469Z,9
2022-12-23T04:00:11.252Z,9
2022-12-23T04:01:10.736Z,9
2022-12-23T04:02:12.122Z,9
2022-12-23T04:03:10.681Z,9
2022-12-23T04:04:11.018Z,9
2022-12-23T04:05:11.322Z,9
2022-12-23T04:06:11.151Z,9
2022-12-23T04:07:10.177Z,9
2022-12-23T04:08:11.336Z,9
2022-12-23T04:09:12.695Z,9
2022-12-23T04:10:10.836Z,9
2022-12-23T04:11:11.397Z,9
2022-12-23T04:12:10.523Z,9
2022-12-23T04:13:11.174Z,9
2022-12-23T04:14:10.777Z,9
2022-12-23T04:15:13.402Z,9
2022-12-23T04:16:10.759Z,8.9
2022-12-23T04:17:10.772Z,9
2022-12-23T04:18:11.425Z,8.9
2022-12-23T04:19:10.680Z,9
2022-12-23T04:20:10.530Z,9
2022-12-23T04:21:10.972Z,9
2022-12-23T04:22:10.489Z,9
2022-12-23T04:23:10.651Z,9
2022-12-23T04:24:11.103Z,9
2022-12-23T04:25:11.330Z,9
2022-12-23T04:26:11.821Z,9
2022-12-23T04:27:11.175Z,9
2022-12-23T04:28:10.738Z,9
2022-12-23T04:29:12.004Z,9
2022-12-23T04:30:11.534Z,9
2022-12-23T04:31:11.725Z,9
2022-12-23T04:32:11.278Z,9
2022-12-23T04:33:12.070Z,8.9
2022-12-23T04:34:11.710Z,8.9
2022-12-23T04:35:10.822Z,8.9
2022-12-23T04:36:11.252Z,8.8
2022-12-23T04:37:11.032Z,8.8
2022-12-23T04:38:10.670Z,8.8
2022-12-23T04:39:10.597Z,8.8
2022-12-23T04:40:11.031Z,8.7
2022-12-23T04:41:11.290Z,8.7
2022-12-23T04:42:11.413Z,8.7
2022-12-23T04:43:11.369Z,8.7
2022-12-23T04:44:11.188Z,8.6
2022-12-23T04:45:10.669Z,8.7
2022-12-23T04:46:11.714Z,8.6
2022-12-23T04:47:10.789Z,8.6
2022-12-23T04:48:11.542Z,8.6
2022-12-23T04:49:11.020Z,8.6
2022-12-23T04:50:11.850Z,8.6
2022-12-23T04:51:09.574Z,8.6
2022-12-23T04:52:11.317Z,8.6
2022-12-23T04:53:11.283Z,8.6
2022-12-23T04:54:10.528Z,8.6
2022-12-23T04:55:11.329Z,8.5
2022-12-23T04:56:11.368Z,8.5
2022-12-23T04:57:11.823Z,8.5
2022-12-23T04:58:10.799Z,8.6
2022-12-23T04:59:10.486Z,8.5
2022-12-23T05:00:11.665Z,8.5
2022-12-23T05:01:10.810Z,8.5
2022-12-23T05:02:12.365Z,8.6
2022-12-23T05:03:12.358Z,8.5
2022-12-23T05:04:10.508Z,8.5
2022-12-23T05:05:10.825Z,8.5
2022-12-23T05:06:11.716Z,8.5
2022-12-23T05:07:10.919Z,8.5
2022-12-23T05:08:11.019Z,8.5
2022-12-23T05:09:10.850Z,8.5
2022-12-23T05:10:10.664Z,8.5
2022-12-23T05:11:11.462Z,8.5
2022-12-23T05:12:10.699Z,8.5
2022-12-23T05:13:10.217Z,8.5
2022-12-23T05:14:10.786Z,8.5
2022-12-23T05:15:10.992Z,8.5
2022-12-23T05:16:12.414Z,8.5
2022-12-23T05:17:10.488Z,8.5
2022-12-23T05:18:10.811Z,8.6
2022-12-23T05:19:11.167Z,8.5
2022-12-23T05:20:11.131Z,8.5
2022-12-23T05:21:10.547Z,8.5
2022-12-23T05:22:10.804Z,8.5
2022-12-23T05:23:10.944Z,8.6
2022-12-23T05:24:10.906Z,8.6
2022-12-23T05:25:12.045Z,8.6
2022-12-23T05:26:10.537Z,8.6
2022-12-23T05:27:10.469Z,8.6
2022-12-23T05:28:11.174Z,8.6
2022-12-23T05:29:11.198Z,8.6
2022-12-23T05:30:10.998Z,8.6
2022-12-23T05:31:11.250Z,8.6
2022-12-23T05:32:13.378Z,8.7
2022-12-23T05:33:11.254Z,8.7
2022-12-23T05:34:10.999Z,8.7
2022-12-23T05:35:11.031Z,8.7
2022-12-23T05:36:11.892Z,8.7
2022-12-23T05:37:10.876Z,8.7
2022-12-23T05:38:11.384Z,8.7
2022-12-23T05:39:11.261Z,8.8
2022-12-23T05:40:10.539Z,8.8
2022-12-23T05:41:10.493Z,8.8
2022-12-23T05:42:10.475Z,8.8
2022-12-23T05:43:10.865Z,8.8
2022-12-23T05:44:10.940Z,8.8
2022-12-23T05:45:10.909Z,8.8
2022-12-23T05:46:11.048Z,8.8
2022-12-23T05:47:10.886Z,8.8
2022-12-23T05:48:10.674Z,8.8
2022-12-23T05:49:10.764Z,8.9
2022-12-23T05:50:11.482Z,8.9
2022-12-23T05:51:10.958Z,8.9
2022-12-23T05:52:11.228Z,8.9
2022-12-23T05:53:10.581Z,8.9
2022-12-23T05:54:10.761Z,8.9
2022-12-23T05:55:10.764Z,8.9
2022-12-23T05:56:10.759Z,8.9
2022-12-23T05:57:10.750Z,8.9
2022-12-23T05:58:10.732Z,8.9
2022-12-23T05:59:11.541Z,9
2022-12-23T06:00:11.096Z,8.9
2022-12-23T06:01:11.077Z,8.9
2022-12-23T06:02:10.765Z,8.9
2022-12-23T06:03:10.905Z,9
2022-12-23T06:04:10.597Z,8.9
2022-12-23T06:05:11.102Z,8.9
2022-12-23T06:06:11.385Z,9
2022-12-23T06:07:10.472Z,9
2022-12-23T06:08:11.098Z,9
2022-12-23T06:09:10.633Z,9
2022-12-23T06:10:11.509Z,9
2022-12-23T06:11:10.759Z,9
2022-12-23T06:12:11.605Z,9
2022-12-23T06:13:11.060Z,9
2022-12-23T06:14:11.110Z,9
2022-12-23T06:15:10.842Z,9.1
2022-12-23T06:16:11.743Z,9.1
2022-12-23T06:17:11.382Z,9.1
2022-12-23T06:18:11.014Z,9.1
2022-12-23T06:19:10.816Z,9.1
2022-12-23T06:20:16.299Z,9.1
2022-12-23T06:21:10.025Z,9.1
2022-12-23T06:22:11.343Z,9.1
2022-12-23T06:23:10.894Z,9.1
2022-12-23T06:24:11.230Z,9.1
2022-12-23T06:25:11.176Z,9.1
2022-12-23T06:26:11.692Z,9.1
2022-12-23T06:27:10.866Z,9.1
2022-12-23T06:28:11.892Z,9.1
2022-12-23T06:29:10.778Z,9.1
2022-12-23T06:30:10.467Z,9.1
2022-12-23T06:31:11.735Z,9.1
2022-12-23T06:32:11.335Z,9.1
2022-12-23T06:33:10.782Z,9
2022-12-23T06:34:10.465Z,9.1
2022-12-23T06:35:10.611Z,9.1
2022-12-23T06:36:10.556Z,9.1
2022-12-23T06:37:10.525Z,9.1
2022-12-23T06:38:12.415Z,9.1
2022-12-23T06:39:12.043Z,9
2022-12-23T06:40:10.515Z,9.1
2022-12-23T06:41:11.842Z,9.1
2022-12-23T06:42:10.472Z,9.1
2022-12-23T06:43:09.387Z,9.1
2022-12-23T06:44:10.494Z,9.1
2022-12-23T06:45:11.731Z,9.1
2022-12-23T06:46:11.252Z,9.1
2022-12-23T06:47:11.172Z,9.1
2022-12-23T06:48:10.721Z,9.1
2022-12-23T06:49:13.376Z,9.1
2022-12-23T06:50:11.233Z,9.1
2022-12-23T06:51:11.127Z,9.1
2022-12-23T06:52:11.350Z,9.1
2022-12-23T06:53:10.475Z,9.1
2022-12-23T06:54:10.800Z,9.1
2022-12-23T06:55:11.592Z,9.1
2022-12-23T06:56:11.350Z,9.1
2022-12-23T06:57:11.026Z,9.1
2022-12-23T06:58:10.975Z,9.1
2022-12-23T06:59:11.468Z,9.1
2022-12-23T07:00:11.454Z,9.1
2022-12-23T07:01:12.362Z,9.1
2022-12-23T07:02:11.265Z,9.1
2022-12-23T07:03:11.858Z,9.1
2022-12-23T07:04:10.985Z,9.1
2022-12-23T07:05:10.577Z,9.1
2022-12-23T07:06:10.933Z,9.1
2022-12-23T07:07:10.933Z,9.1
2022-12-23T07:08:10.868Z,9
2022-12-23T07:09:11.033Z,9
2022-12-23T07:10:11.323Z,9
2022-12-23T07:11:11.042Z,9
2022-12-23T07:12:10.496Z,9
2022-12-23T07:13:10.909Z,9
2022-12-23T07:14:11.751Z,9
2022-12-23T07:15:11.021Z,9
2022-12-23T07:16:11.142Z,9
2022-12-23T07:17:10.827Z,8.9
2022-12-23T07:18:10.474Z,9
2022-12-23T07:19:10.768Z,8.9
2022-12-23T07:20:10.984Z,9
2022-12-23T07:21:21.147Z,9
2022-12-23T07:22:10.813Z,9
2022-12-23T07:23:11.033Z,9
2022-12-23T07:24:10.745Z,9
2022-12-23T07:25:10.810Z,9
2022-12-23T07:26:11.233Z,9
2022-12-23T07:27:10.725Z,9
2022-12-23T07:28:11.178Z,9
2022-12-23T07:29:11.822Z,9
2022-12-23T07:30:10.770Z,9
2022-12-23T07:31:11.247Z,9
2022-12-23T07:32:10.995Z,8.9
2022-12-23T07:33:11.206Z,8.9
2022-12-23T07:34:10.870Z,8.9
2022-12-23T07:35:10.481Z,9
2022-12-23T07:36:11.332Z,9
2022-12-23T07:37:11.264Z,9
2022-12-23T07:38:11.605Z,9
2022-12-23T07:39:12.095Z,8.9
2022-12-23T07:40:11.486Z,8.9
2022-12-23T07:41:12.006Z,8.9
2022-12-23T07:42:43.533Z,8.8
2022-12-23T07:43:10.589Z,8.8
2022-12-23T07:44:10.502Z,8.8
2022-12-23T07:45:10.954Z,8.8
2022-12-23T07:46:10.842Z,8.7
2022-12-23T07:47:10.820Z,8.7
2022-12-23T07:48:11.005Z,8.7
2022-12-23T07:49:10.411Z,8.6
2022-12-23T07:50:09.580Z,8.6
2022-12-23T07:51:11.900Z,8.5
2022-12-23T07:52:10.981Z,8.5
2022-12-23T07:53:11.365Z,8.5
2022-12-23T07:54:11.455Z,8.5
2022-12-23T07:55:11.055Z,8.4
2022-12-23T07:56:11.428Z,8.5
2022-12-23T07:57:11.372Z,8.5
2022-12-23T07:58:10.474Z,8.5
2022-12-23T07:59:12.015Z,8.5
2022-12-23T08:00:11.202Z,8.4
2022-12-23T08:01:10.953Z,8.5
2022-12-23T08:02:11.036Z,8.5
2022-12-23T08:03:11.644Z,8.5
2022-12-23T08:04:11.237Z,8.5
2022-12-23T08:05:11.269Z,8.5
2022-12-23T08:06:10.776Z,8.5
2022-12-23T08:07:11.071Z,8.5
2022-12-23T08:08:11.229Z,8.6
2022-12-23T08:09:11.128Z,8.6
2022-12-23T08:10:11.934Z,8.6
2022-12-23T08:11:11.135Z,8.6
2022-12-23T08:12:11.406Z,8.6
2022-12-23T08:13:10.186Z,8.7
2022-12-23T08:14:10.998Z,8.7
2022-12-23T08:15:10.899Z,8.7
2022-12-23T08:16:10.978Z,8.7
2022-12-23T08:17:11.171Z,8.7
2022-12-23T08:18:11.122Z,8.7
2022-12-23T08:19:11.003Z,8.7
2022-12-23T08:20:10.505Z,8.7
2022-12-23T08:21:10.921Z,8.7
2022-12-23T08:22:11.632Z,8.8
2022-12-23T08:23:11.153Z,8.7
2022-12-23T08:24:11.191Z,8.7
2022-12-23T08:25:10.889Z,8.8
2022-12-23T08:26:11.467Z,8.7
2022-12-23T08:27:11.377Z,8.7
2022-12-23T08:28:11.191Z,8.7
2022-12-23T08:29:10.504Z,8.7
2022-12-23T08:30:11.631Z,8.7
2022-12-23T08:31:10.551Z,8.8
2022-12-23T08:32:10.842Z,8.7
2022-12-23T08:33:10.849Z,8.7
2022-12-23T08:34:11.317Z,8.7
2022-12-23T08:35:09.903Z,8.7
2022-12-23T08:36:10.494Z,8.7
2022-12-23T08:37:11.022Z,8.6
2022-12-23T08:38:10.960Z,8.6
2022-12-23T08:39:12.002Z,8.6
2022-12-23T08:40:10.499Z,8.6
2022-12-23T08:41:11.222Z,8.6
2022-12-23T08:42:11.150Z,8.6
2022-12-23T08:43:11.466Z,8.6
2022-12-23T08:44:11.129Z,8.6
2022-12-23T08:45:12.070Z,8.6
2022-12-23T08:46:10.862Z,8.6
2022-12-23T08:47:10.542Z,8.6
2022-12-23T08:48:10.584Z,8.6
2022-12-23T08:49:11.368Z,8.5
2022-12-23T08:50:11.115Z,8.5
2022-12-23T08:51:11.094Z,8.5
2022-12-23T08:52:10.496Z,8.5
2022-12-23T08:53:11.108Z,8.5
2022-12-23T08:54:10.657Z,8.5
2022-12-23T08:55:11.872Z,8.5
2022-12-23T08:56:11.282Z,8.4
2022-12-23T08:57:10.808Z,8.5
2022-12-23T08:58:11.216Z,8.4
2022-12-23T08:59:18.070Z,8.5
2022-12-23T09:00:11.166Z,8.5
2022-12-23T09:01:11.559Z,8.5
2022-12-23T09:02:11.148Z,8.4
2022-12-23T09:03:10.656Z,8.5
2022-12-23T09:04:11.352Z,8.5
2022-12-23T09:05:10.784Z,8.5
2022-12-23T09:06:11.579Z,8.5
2022-12-23T09:07:10.714Z,8.5
2022-12-23T09:08:11.743Z,8.5
2022-12-23T09:09:11.323Z,8.6
2022-12-23T09:10:11.204Z,8.6
2022-12-23T09:11:11.039Z,8.6
2022-12-23T09:12:10.840Z,8.6
2022-12-23T09:13:10.628Z,8.6
2022-12-23T09:14:10.812Z,8.7
2022-12-23T09:15:11.059Z,8.7
2022-12-23T09:16:10.839Z,8.7
2022-12-23T09:17:10.770Z,8.8
2022-12-23T09:18:10.525Z,8.8
2022-12-23T09:19:10.169Z,8.8
2022-12-23T09:20:10.521Z,8.8
2022-12-23T09:21:10.890Z,8.8
2022-12-23T09:22:11.540Z,8.8
2022-12-23T09:23:12.104Z,8.8
2022-12-23T09:24:10.600Z,8.9
2022-12-23T09:25:11.323Z,9
2022-12-23T09:26:10.719Z,9
2022-12-23T09:27:11.894Z,9
2022-12-23T09:28:11.651Z,9
2022-12-23T09:29:11.128Z,9.1
2022-12-23T09:30:11.498Z,9.1
2022-12-23T09:31:10.561Z,9.2
2022-12-23T09:32:11.369Z,9.1
2022-12-23T09:33:11.280Z,9.1
2022-12-23T09:34:11.126Z,9.2
2022-12-23T09:35:10.578Z,9.2
2022-12-23T09:36:11.271Z,9.2
2022-12-23T09:37:11.699Z,9.2
2022-12-23T09:38:11.728Z,9.2
2022-12-23T09:39:10.527Z,9.1
2022-12-23T09:40:10.931Z,9.2
2022-12-23T09:41:10.455Z,9.2
2022-12-23T09:42:11.022Z,9.2
2022-12-23T09:43:10.876Z,9.2
2022-12-23T09:44:11.151Z,9.2
2022-12-23T09:45:10.554Z,9.2
2022-12-23T09:46:10.985Z,9.2
2022-12-23T09:47:11.929Z,9.2
2022-12-23T09:48:11.824Z,9.2
2022-12-23T09:49:11.873Z,9.2
2022-12-23T09:50:11.262Z,9.2
2022-12-23T09:51:10.618Z,9.3
2022-12-23T09:52:10.714Z,9.3
2022-12-23T09:53:10.500Z,9.3
2022-12-23T09:54:16.401Z,9.4
2022-12-23T09:55:11.008Z,9.3
2022-12-23T09:56:10.607Z,9.3
2022-12-23T09:57:10.633Z,9.2
2022-12-23T09:58:12.137Z,9.3
2022-12-23T09:59:10.943Z,9.4
2022-12-23T10:00:11.066Z,9.4
2022-12-23T10:01:11.145Z,9.4
2022-12-23T10:02:11.026Z,9.4
2022-12-23T10:03:09.633Z,9.4
2022-12-23T10:04:11.357Z,9.3
2022-12-23T10:05:10.562Z,9.3
2022-12-23T10:06:11.956Z,9.3
2022-12-23T10:07:11.165Z,9.4
2022-12-23T10:08:10.502Z,9.3
2022-12-23T10:09:10.599Z,9.3
2022-12-23T10:10:10.582Z,9.3
2022-12-23T10:11:11.250Z,9.3
2022-12-23T10:12:11.174Z,9.3
2022-12-23T10:13:11.872Z,9.4
2022-12-23T10:14:11.145Z,9.4
2022-12-23T10:15:11.037Z,9.4
2022-12-23T10:16:11.276Z,9.4
2022-12-23T10:17:11.341Z,9.5
2022-12-23T10:18:11.919Z,9.5
2022-12-23T10:19:11.651Z,9.5
2022-12-23T10:20:10.655Z,9.5
2022-12-23T10:21:10.899Z,9.5
2022-12-23T10:22:11.670Z,9.5
2022-12-23T10:23:11.131Z,9.4
2022-12-23T10:24:10.873Z,9.5
2022-12-23T10:25:10.617Z,9.6
2022-12-23T10:26:09.402Z,9.5
2022-12-23T10:27:10.771Z,9.5
2022-12-23T10:28:11.734Z,9.5
2022-12-23T10:29:14.056Z,9.6
2022-12-23T10:30:41.393Z,9.6
2022-12-23T10:31:38.744Z,9.6
2022-12-23T10:32:10.624Z,9.6
2022-12-23T10:33:10.781Z,9.7
2022-12-23T10:34:10.567Z,9.7
2022-12-23T10:35:10.724Z,9.7
2022-12-23T10:36:11.603Z,9.7
2022-12-23T10:37:11.027Z,9.7
2022-12-23T10:38:10.777Z,9.7
2022-12-23T10:39:11.163Z,9.7
2022-12-23T10:40:11.101Z,9.8
2022-12-23T10:41:11.943Z,9.8
2022-12-23T10:42:11.019Z,9.7
2022-12-23T10:43:11.088Z,9.8
2022-12-23T10:44:10.992Z,9.8
2022-12-23T10:45:10.722Z,9.8
2022-12-23T10:46:11.493Z,9.6
2022-12-23T10:47:11.476Z,9.7
2022-12-23T10:48:14.226Z,9.7
2022-12-23T10:49:10.947Z,9.7
2022-12-23T10:50:10.668Z,9.6
2022-12-23T10:51:10.940Z,9.6
2022-12-23T10:52:11.451Z,9.6
2022-12-23T10:53:11.623Z,9.6
2022-12-23T10:54:11.315Z,9.6
2022-12-23T10:55:10.705Z,9.6
2022-12-23T10:56:10.876Z,9.7
2022-12-23T10:57:11.626Z,9.7
2022-12-23T10:58:11.416Z,9.7
2022-12-23T10:59:11.392Z,9.8
2022-12-23T11:00:11.129Z,9.8
2022-12-23T11:01:18.663Z,9.8
2022-12-23T11:02:11.406Z,9.9
2022-12-23T11:03:10.824Z,9.8
2022-12-23T11:04:11.894Z,9.9
2022-12-23T11:05:10.559Z,9.9
2022-12-23T11:06:11.288Z,9.8
2022-12-23T11:07:42.919Z,9.8
2022-12-23T11:08:10.489Z,9.7
2022-12-23T11:09:10.547Z,9.8
2022-12-23T11:10:10.681Z,9.8
2022-12-23T11:11:09.339Z,9.8
2022-12-23T11:12:10.575Z,9.8
2022-12-23T11:13:10.553Z,9.8
2022-12-23T11:14:10.820Z,9.7
2022-12-23T11:15:11.028Z,9.7
2022-12-23T11:16:11.301Z,9.6
2022-12-23T11:17:10.928Z,9.7
2022-12-23T11:18:10.746Z,9.8
2022-12-23T11:19:11.427Z,9.7
2022-12-23T11:20:10.507Z,9.8
2022-12-23T11:21:10.637Z,9.8
2022-12-23T11:22:10.547Z,9.8
2022-12-23T11:23:10.859Z,9.8
2022-12-23T11:24:11.258Z,9.8
2022-12-23T11:25:10.793Z,9.8
2022-12-23T11:26:10.592Z,9.7
2022-12-23T11:27:10.889Z,9.7
2022-12-23T11:28:10.536Z,9.8
2022-12-23T11:29:11.212Z,9.7
2022-12-23T11:30:11.136Z,9.7
2022-12-23T11:31:11.197Z,9.8
2022-12-23T11:32:11.185Z,9.8
2022-12-23T11:33:10.591Z,9.7
2022-12-23T11:34:11.316Z,9.7
2022-12-23T11:35:11.278Z,9.7
2022-12-23T11:36:10.723Z,9.7
2022-12-23T11:37:10.955Z,9.7
2022-12-23T11:38:10.584Z,9.6
2022-12-23T11:39:10.963Z,9.7
2022-12-23T11:40:11.041Z,9.6
2022-12-23T11:41:12.130Z,9.6
2022-12-23T11:42:10.862Z,9.6
2022-12-23T11:43:11.288Z,9.6
2022-12-23T11:44:10.972Z,9.6
2022-12-23T11:45:11.021Z,9.6
2022-12-23T11:46:10.607Z,9.6
2022-12-23T11:47:11.315Z,9.6
2022-12-23T11:48:11.780Z,9.6
2022-12-23T11:49:11.140Z,9.6
2022-12-23T11:50:10.731Z,9.5
2022-12-23T11:51:10.623Z,9.5
2022-12-23T11:52:11.302Z,9.6
2022-12-23T11:53:10.945Z,9.6
2022-12-23T11:54:11.130Z,9.6
2022-12-23T11:55:10.967Z,9.5
2022-12-23T11:56:11.406Z,9.5
2022-12-23T11:57:10.837Z,9.6
2022-12-23T11:58:11.587Z,9.6
2022-12-23T11:59:10.575Z,9.7
2022-12-23T12:00:10.557Z,9.7
2022-12-23T12:01:10.594Z,9.8
2022-12-23T12:02:11.158Z,9.8
2022-12-23T12:03:11.735Z,9.8
2022-12-23T12:04:11.610Z,9.8
2022-12-23T12:05:10.827Z,9.9
2022-12-23T12:06:10.893Z,9.9
2022-12-23T12:07:10.976Z,9.9
2022-12-23T12:08:10.476Z,9.8
2022-12-23T12:09:10.540Z,9.9
2022-12-23T12:10:11.121Z,9.9
2022-12-23T12:11:11.379Z,9.8
2022-12-23T12:12:11.351Z,9.9
2022-12-23T12:13:11.436Z,9.9
2022-12-23T12:14:12.608Z,9.9
2022-12-23T12:15:11.097Z,9.8
2022-12-23T12:16:11.406Z,9.8
2022-12-23T12:17:10.830Z,9.9
2022-12-23T12:18:11.018Z,9.9
2022-12-23T12:19:11.103Z,9.8
2022-12-23T12:20:09.402Z,9.7
2022-12-23T12:21:10.839Z,9.8
2022-12-23T12:22:10.525Z,9.7
2022-12-23T12:23:11.360Z,9.7
2022-12-23T12:24:19.598Z,9.7
2022-12-23T12:25:11.866Z,9.8
2022-12-23T12:26:11.167Z,9.8
2022-12-23T12:27:11.189Z,9.8
2022-12-23T12:28:11.675Z,9.6
2022-12-23T12:29:11.831Z,9.6
2022-12-23T12:30:11.328Z,9.6
2022-12-23T12:31:11.873Z,9.6
2022-12-23T12:32:10.839Z,9.6
2022-12-23T12:33:11.448Z,9.6
2022-12-23T12:34:11.442Z,9.5
2022-12-23T12:35:10.930Z,9.4
2022-12-23T12:36:10.922Z,9.4
2022-12-23T12:37:12.080Z,9.4
2022-12-23T12:38:11.980Z,9.4
2022-12-23T12:39:11.356Z,9.4
2022-12-23T12:40:10.569Z,9.4
2022-12-23T12:41:12.043Z,9.5
2022-12-23T12:42:09.346Z,9.5
2022-12-23T12:43:10.569Z,9.5
2022-12-23T12:44:10.836Z,9.5
2022-12-23T12:45:11.148Z,9.4
2022-12-23T12:46:11.417Z,9.4
2022-12-23T12:48:18.198Z,9.3
2022-12-23T12:49:11.956Z,9.4
2022-12-23T12:50:10.527Z,9.4
2022-12-23T12:51:10.670Z,9.4
2022-12-23T12:52:10.916Z,9.4
2022-12-23T12:53:10.516Z,9.4
2022-12-23T12:54:10.580Z,9.4
2022-12-23T12:55:11.411Z,9.4
2022-12-23T12:56:11.110Z,9.4
2022-12-23T12:57:10.866Z,9.3
2022-12-23T12:58:11.539Z,9.3
2022-12-23T12:59:10.815Z,9.4
2022-12-23T13:00:10.684Z,9.3
2022-12-23T13:01:11.193Z,9.3
2022-12-23T13:02:12.016Z,9.3
2022-12-23T13:03:10.536Z,9.4
2022-12-23T13:04:11.735Z,9.3
2022-12-23T13:05:10.793Z,9.3
2022-12-23T13:06:11.818Z,9.4
2022-12-23T13:07:11.873Z,9.4
2022-12-23T13:08:10.787Z,9.4
2022-12-23T13:09:10.909Z,9.3
2022-12-23T13:10:10.527Z,9.4
2022-12-23T13:11:10.868Z,9.3
2022-12-23T13:12:11.362Z,9.4
2022-12-23T13:13:12.249Z,9.3
2022-12-23T13:14:10.712Z,9.3
2022-12-23T13:15:11.304Z,9.3
2022-12-23T13:16:11.535Z,9.4
2022-12-23T13:17:11.558Z,9.4
2022-12-23T13:18:10.502Z,9.4
2022-12-23T13:19:11.294Z,9.4
2022-12-23T13:20:11.207Z,9.4
2022-12-23T13:21:12.077Z,9.5
2022-12-23T13:22:10.898Z,9.5
2022-12-23T13:23:41.818Z,9.5
2022-12-23T13:24:10.806Z,9.5
2022-12-23T13:25:10.862Z,9.5
2022-12-23T13:26:11.679Z,9.4
2022-12-23T13:27:09.744Z,9.4
2022-12-23T13:28:10.521Z,9.4
2022-12-23T13:29:10.880Z,9.4
2022-12-23T13:30:12.674Z,9.4
2022-12-23T13:31:10.687Z,9.4
2022-12-23T13:32:11.290Z,9.3
2022-12-23T13:33:10.523Z,9.3
2022-12-23T13:34:11.650Z,9.3
2022-12-23T13:35:11.615Z,9.3
2022-12-23T13:36:11.668Z,9.2
2022-12-23T13:37:10.535Z,9.3
2022-12-23T13:38:10.936Z,9.3
2022-12-23T13:39:11.314Z,9.3
2022-12-23T13:40:11.641Z,9.3
2022-12-23T13:41:11.914Z,9.4
2022-12-23T13:42:10.881Z,9.4
2022-12-23T13:43:11.398Z,9.4
2022-12-23T13:44:10.816Z,9.4
2022-12-23T13:45:11.234Z,9.4
2022-12-23T13:46:11.998Z,9.4
2022-12-23T13:47:11.606Z,9.5
2022-12-23T13:48:10.531Z,9.4
2022-12-23T13:49:11.257Z,9.4
2022-12-23T13:50:10.588Z,9.5
2022-12-23T13:51:11.631Z,9.5
2022-12-23T13:52:10.862Z,9.5
2022-12-23T13:53:10.593Z,9.5
2022-12-23T13:54:11.045Z,9.5
2022-12-23T13:55:11.013Z,9.5